sensor_id;sensor_type;location;lat;lon;timestamp;P1;durP1;ratioP1;P2;durP2;ratioP2
1416;SDS011;703;51.162;13.574;2023-04-15T01:49:13;27.73;;;4.53;;
1416;SDS011;703;51.162;13.574;2023-04-15T01:51:39;28.10;;;5.03;;
1416;SDS011;703;51.162;13.574;2023-04-15T01:54:05;27.90;;;4.22;;
1416;SDS011;703;51.162;13.574;2023-04-15T01:56:31;28.10;;;5.03;;
1416;SDS011;703;51.162;13.574;2023-04-15T01:58:57;28.80;;;5.30;;
1416;SDS011;703;51.162;13.574;2023-04-15T02:01:23;28.00;;;5.00;;
1416;SDS011;703;51.162;13.574;2023-04-15T02:03:49;29.10;;;5.55;;
1416;SDS011;703;51.162;13.574;2023-04-15T02:06:16;28.15;;;4.80;;
1416;SDS011;703;51.162;13.574;2023-04-15T02:08:42;29.10;;;4.90;;
1416;SDS011;703;51.162;13.574;2023-04-15T02:11:08;28.42;;;4.85;;
1416;SDS011;703;51.162;13.574;2023-04-15T02:13:34;28.42;;;4.70;;
1416;SDS011;703;51.162;13.574;2023-04-15T02:16:00;28.50;;;4.93;;
1416;SDS011;703;51.162;13.574;2023-04-15T02:18:26;28.30;;;4.75;;
1416;SDS011;703;51.162;13.574;2023-04-15T02:20:52;30.00;;;5.63;;
1416;SDS011;703;51.162;13.574;2023-04-15T02:23:17;28.30;;;4.30;;
1416;SDS011;703;51.162;13.574;2023-04-15T02:25:43;28.60;;;5.00;;
1416;SDS011;703;51.162;13.574;2023-04-15T02:28:09;29.27;;;5.15;;
1416;SDS011;703;51.162;13.574;2023-04-15T02:30:35;28.40;;;5.00;;
1416;SDS011;703;51.162;13.574;2023-04-15T02:33:01;28.70;;;5.00;;
1416;SDS011;703;51.162;13.574;2023-04-15T02:35:27;29.00;;;5.40;;
1416;SDS011;703;51.162;13.574;2023-04-15T02:37:53;28.08;;;4.80;;
1416;SDS011;703;51.162;13.574;2023-04-15T02:40:19;28.00;;;4.55;;
1416;SDS011;703;51.162;13.574;2023-04-15T02:42:45;28.53;;;4.87;;
1416;SDS011;703;51.162;13.574;2023-04-15T02:45:11;28.37;;;5.07;;
1416;SDS011;703;51.162;13.574;2023-04-15T02:47:37;28.17;;;4.65;;
1416;SDS011;703;51.162;13.574;2023-04-15T02:50:09;29.03;;;5.50;;
1416;SDS011;703;51.162;13.574;2023-04-15T02:52:37;29.10;;;4.90;;
1416;SDS011;703;51.162;13.574;2023-04-15T02:55:03;28.23;;;4.47;;
1416;SDS011;703;51.162;13.574;2023-04-15T02:57:29;28.40;;;4.72;;
1416;SDS011;703;51.162;13.574;2023-04-15T02:59:55;28.90;;;5.00;;
1416;SDS011;703;51.162;13.574;2023-04-15T03:02:21;28.33;;;5.10;;
1416;SDS011;703;51.162;13.574;2023-04-15T03:04:47;28.80;;;4.90;;
1416;SDS011;703;51.162;13.574;2023-04-15T03:07:13;29.30;;;5.47;;
1416;SDS011;703;51.162;13.574;2023-04-15T03:09:39;29.80;;;5.00;;
1416;SDS011;703;51.162;13.574;2023-04-15T03:12:05;28.90;;;4.82;;
1416;SDS011;703;51.162;13.574;2023-04-15T03:14:31;29.13;;;5.50;;
1416;SDS011;703;51.162;13.574;2023-04-15T03:16:57;28.53;;;5.10;;
1416;SDS011;703;51.162;13.574;2023-04-15T03:19:23;28.97;;;4.90;;
1416;SDS011;703;51.162;13.574;2023-04-15T03:21:49;29.80;;;5.60;;
1416;SDS011;703;51.162;13.574;2023-04-15T03:24:16;29.10;;;5.00;;
1416;SDS011;703;51.162;13.574;2023-04-15T03:26:42;29.73;;;6.00;;
1416;SDS011;703;51.162;13.574;2023-04-15T03:29:07;30.00;;;6.13;;
1416;SDS011;703;51.162;13.574;2023-04-15T03:31:33;29.40;;;5.30;;
1416;SDS011;703;51.162;13.574;2023-04-15T03:33:59;30.20;;;6.13;;
1416;SDS011;703;51.162;13.574;2023-04-15T03:36:25;29.17;;;5.75;;
1416;SDS011;703;51.162;13.574;2023-04-15T03:38:52;29.90;;;5.87;;
1416;SDS011;703;51.162;13.574;2023-04-15T03:41:17;29.40;;;5.50;;
1416;SDS011;703;51.162;13.574;2023-04-15T03:43:43;28.10;;;5.03;;
1416;SDS011;703;51.162;13.574;2023-04-15T03:46:09;29.48;;;5.03;;
1416;SDS011;703;51.162;13.574;2023-04-15T03:48:35;29.77;;;6.00;;
1416;SDS011;703;51.162;13.574;2023-04-15T03:51:01;29.23;;;6.03;;
1416;SDS011;703;51.162;13.574;2023-04-15T03:53:27;29.25;;;5.60;;
1416;SDS011;703;51.162;13.574;2023-04-15T03:55:53;30.30;;;6.68;;
1416;SDS011;703;51.162;13.574;2023-04-15T03:58:19;28.80;;;5.80;;
1416;SDS011;703;51.162;13.574;2023-04-15T04:00:45;28.10;;;4.50;;
1416;SDS011;703;51.162;13.574;2023-04-15T04:03:11;29.63;;;6.10;;
1416;SDS011;703;51.162;13.574;2023-04-15T04:05:37;30.25;;;5.90;;
1416;SDS011;703;51.162;13.574;2023-04-15T04:08:05;30.52;;;5.82;;
1416;SDS011;703;51.162;13.574;2023-04-15T04:10:31;29.70;;;6.10;;
1416;SDS011;703;51.162;13.574;2023-04-15T04:12:57;29.55;;;5.20;;
1416;SDS011;703;51.162;13.574;2023-04-15T04:15:23;30.80;;;6.40;;
1416;SDS011;703;51.162;13.574;2023-04-15T04:17:49;29.23;;;5.50;;
1416;SDS011;703;51.162;13.574;2023-04-15T04:20:15;30.50;;;6.60;;
1416;SDS011;703;51.162;13.574;2023-04-15T04:22:41;29.63;;;6.30;;
1416;SDS011;703;51.162;13.574;2023-04-15T04:25:07;30.15;;;6.30;;
1416;SDS011;703;51.162;13.574;2023-04-15T04:27:34;30.63;;;6.40;;
1416;SDS011;703;51.162;13.574;2023-04-15T04:30:00;30.80;;;7.00;;
1416;SDS011;703;51.162;13.574;2023-04-15T04:32:26;28.92;;;6.00;;
1416;SDS011;703;51.162;13.574;2023-04-15T04:34:52;30.92;;;6.55;;
1416;SDS011;703;51.162;13.574;2023-04-15T04:37:18;32.20;;;7.57;;
1416;SDS011;703;51.162;13.574;2023-04-15T04:39:44;30.23;;;6.60;;
1416;SDS011;703;51.162;13.574;2023-04-15T04:42:10;31.70;;;7.93;;
1416;SDS011;703;51.162;13.574;2023-04-15T04:44:35;30.83;;;7.03;;
1416;SDS011;703;51.162;13.574;2023-04-15T04:47:04;32.22;;;7.55;;
1416;SDS011;703;51.162;13.574;2023-04-15T04:49:31;31.52;;;6.90;;
1416;SDS011;703;51.162;13.574;2023-04-15T04:51:57;31.27;;;7.45;;
1416;SDS011;703;51.162;13.574;2023-04-15T04:54:24;31.58;;;8.35;;
1416;SDS011;703;51.162;13.574;2023-04-15T04:56:50;30.92;;;7.38;;
1416;SDS011;703;51.162;13.574;2023-04-15T04:59:16;32.70;;;8.38;;
1416;SDS011;703;51.162;13.574;2023-04-15T05:04:08;32.72;;;8.48;;
1416;SDS011;703;51.162;13.574;2023-04-15T05:06:34;35.22;;;9.38;;
1416;SDS011;703;51.162;13.574;2023-04-15T05:09:01;30.48;;;7.47;;
1416;SDS011;703;51.162;13.574;2023-04-15T05:11:27;35.60;;;10.00;;
1416;SDS011;703;51.162;13.574;2023-04-15T05:13:53;34.47;;;9.57;;
1416;SDS011;703;51.162;13.574;2023-04-15T05:16:19;34.08;;;9.05;;
1416;SDS011;703;51.162;13.574;2023-04-15T05:18:46;32.28;;;8.32;;
1416;SDS011;703;51.162;13.574;2023-04-15T05:21:12;34.00;;;10.10;;
1416;SDS011;703;51.162;13.574;2023-04-15T05:23:38;35.72;;;10.23;;
1416;SDS011;703;51.162;13.574;2023-04-15T05:26:04;35.80;;;10.47;;
1416;SDS011;703;51.162;13.574;2023-04-15T05:28:30;33.00;;;9.13;;
1416;SDS011;703;51.162;13.574;2023-04-15T05:30:56;34.40;;;9.98;;
1416;SDS011;703;51.162;13.574;2023-04-15T05:33:22;33.08;;;9.45;;
1416;SDS011;703;51.162;13.574;2023-04-15T05:35:48;33.53;;;9.07;;
1416;SDS011;703;51.162;13.574;2023-04-15T05:38:13;36.05;;;10.13;;
1416;SDS011;703;51.162;13.574;2023-04-15T05:40:39;33.33;;;9.38;;
1416;SDS011;703;51.162;13.574;2023-04-15T05:43:05;32.28;;;9.07;;
1416;SDS011;703;51.162;13.574;2023-04-15T05:45:31;34.93;;;10.23;;
1416;SDS011;703;51.162;13.574;2023-04-15T05:47:57;36.53;;;11.10;;
1416;SDS011;703;51.162;13.574;2023-04-15T05:50:23;32.88;;;9.65;;
1416;SDS011;703;51.162;13.574;2023-04-15T05:52:49;36.33;;;11.38;;
1416;SDS011;703;51.162;13.574;2023-04-15T05:55:15;36.03;;;10.88;;
1416;SDS011;703;51.162;13.574;2023-04-15T05:57:41;37.78;;;11.68;;
1416;SDS011;703;51.162;13.574;2023-04-15T06:00:07;35.55;;;11.18;;
1416;SDS011;703;51.162;13.574;2023-04-15T06:02:34;38.35;;;12.10;;
1416;SDS011;703;51.162;13.574;2023-04-15T06:05:00;37.58;;;12.48;;
1416;SDS011;703;51.162;13.574;2023-04-15T06:07:26;37.38;;;12.18;;
1416;SDS011;703;51.162;13.574;2023-04-15T06:09:52;34.47;;;10.07;;
1416;SDS011;703;51.162;13.574;2023-04-15T06:12:21;34.83;;;10.13;;
1416;SDS011;703;51.162;13.574;2023-04-15T06:14:47;32.70;;;8.80;;
1416;SDS011;703;51.162;13.574;2023-04-15T06:17:13;36.58;;;10.80;;
1416;SDS011;703;51.162;13.574;2023-04-15T06:19:39;36.17;;;10.85;;
1416;SDS011;703;51.162;13.574;2023-04-15T06:22:05;39.28;;;12.18;;
1416;SDS011;703;51.162;13.574;2023-04-15T06:24:31;33.25;;;10.43;;
1416;SDS011;703;51.162;13.574;2023-04-15T06:26:57;33.95;;;10.90;;
1416;SDS011;703;51.162;13.574;2023-04-15T06:29:23;36.47;;;11.50;;
1416;SDS011;703;51.162;13.574;2023-04-15T06:31:49;33.53;;;9.25;;
1416;SDS011;703;51.162;13.574;2023-04-15T06:34:15;38.17;;;10.97;;
1416;SDS011;703;51.162;13.574;2023-04-15T06:36:41;35.50;;;10.77;;
1416;SDS011;703;51.162;13.574;2023-04-15T06:39:08;33.95;;;10.38;;
1416;SDS011;703;51.162;13.574;2023-04-15T06:41:33;38.77;;;12.90;;
1416;SDS011;703;51.162;13.574;2023-04-15T06:43:59;34.25;;;10.30;;
1416;SDS011;703;51.162;13.574;2023-04-15T06:46:25;34.78;;;10.18;;
1416;SDS011;703;51.162;13.574;2023-04-15T06:48:51;36.75;;;11.30;;
1416;SDS011;703;51.162;13.574;2023-04-15T06:51:20;31.17;;;8.18;;
1416;SDS011;703;51.162;13.574;2023-04-15T06:53:47;34.80;;;10.00;;
1416;SDS011;703;51.162;13.574;2023-04-15T06:56:14;32.45;;;8.68;;
1416;SDS011;703;51.162;13.574;2023-04-15T06:58:39;32.28;;;8.77;;
1416;SDS011;703;51.162;13.574;2023-04-15T07:01:05;31.52;;;7.57;;
1416;SDS011;703;51.162;13.574;2023-04-15T07:03:31;32.30;;;8.30;;
1416;SDS011;703;51.162;13.574;2023-04-15T07:05:57;30.20;;;7.18;;
1416;SDS011;703;51.162;13.574;2023-04-15T07:08:23;29.97;;;7.20;;
1416;SDS011;703;51.162;13.574;2023-04-15T07:10:49;27.80;;;4.50;;
1416;SDS011;703;51.162;13.574;2023-04-15T07:13:15;27.63;;;4.50;;
1416;SDS011;703;51.162;13.574;2023-04-15T07:15:41;26.80;;;4.20;;
1416;SDS011;703;51.162;13.574;2023-04-15T07:18:06;27.53;;;3.90;;
1416;SDS011;703;51.162;13.574;2023-04-15T07:20:33;26.65;;;3.90;;
1416;SDS011;703;51.162;13.574;2023-04-15T07:22:59;27.38;;;4.45;;
1416;SDS011;703;51.162;13.574;2023-04-15T07:25:25;26.60;;;3.70;;
1416;SDS011;703;51.162;13.574;2023-04-15T07:27:51;25.90;;;2.90;;
1416;SDS011;703;51.162;13.574;2023-04-15T07:30:18;26.63;;;2.58;;
1416;SDS011;703;51.162;13.574;2023-04-15T07:32:43;27.55;;;3.20;;
1416;SDS011;703;51.162;13.574;2023-04-15T07:35:09;26.40;;;2.90;;
1416;SDS011;703;51.162;13.574;2023-04-15T07:37:35;27.30;;;3.80;;
1416;SDS011;703;51.162;13.574;2023-04-15T07:40:02;27.20;;;4.00;;
1416;SDS011;703;51.162;13.574;2023-04-15T07:42:29;27.15;;;3.80;;
1416;SDS011;703;51.162;13.574;2023-04-15T07:44:54;26.90;;;3.40;;
1416;SDS011;703;51.162;13.574;2023-04-15T07:47:21;26.95;;;3.53;;
1416;SDS011;703;51.162;13.574;2023-04-15T07:49:47;26.25;;;2.88;;
1416;SDS011;703;51.162;13.574;2023-04-15T07:52:13;25.37;;;2.50;;
1416;SDS011;703;51.162;13.574;2023-04-15T07:54:39;25.50;;;2.10;;
1416;SDS011;703;51.162;13.574;2023-04-15T07:57:05;26.00;;;2.30;;
1416;SDS011;703;51.162;13.574;2023-04-15T07:59:31;25.83;;;2.37;;
1416;SDS011;703;51.162;13.574;2023-04-15T08:01:57;26.10;;;2.20;;
1416;SDS011;703;51.162;13.574;2023-04-15T08:04:24;25.92;;;2.10;;
1416;SDS011;703;51.162;13.574;2023-04-15T08:06:50;25.30;;;2.10;;
1416;SDS011;703;51.162;13.574;2023-04-15T08:09:16;24.85;;;1.73;;
1416;SDS011;703;51.162;13.574;2023-04-15T08:11:42;25.30;;;1.80;;
1416;SDS011;703;51.162;13.574;2023-04-15T08:14:08;27.13;;;2.10;;
1416;SDS011;703;51.162;13.574;2023-04-15T08:16:34;26.42;;;2.08;;
1416;SDS011;703;51.162;13.574;2023-04-15T08:19:01;25.10;;;1.60;;
1416;SDS011;703;51.162;13.574;2023-04-15T08:21:27;25.50;;;1.60;;
1416;SDS011;703;51.162;13.574;2023-04-15T08:23:54;25.95;;;1.40;;
1416;SDS011;703;51.162;13.574;2023-04-15T08:26:21;24.80;;;1.80;;
1416;SDS011;703;51.162;13.574;2023-04-15T08:28:47;25.70;;;1.50;;
1416;SDS011;703;51.162;13.574;2023-04-15T08:31:13;24.50;;;1.50;;
1416;SDS011;703;51.162;13.574;2023-04-15T08:33:40;26.38;;;1.45;;
1416;SDS011;703;51.162;13.574;2023-04-15T08:36:06;24.92;;;1.40;;
1416;SDS011;703;51.162;13.574;2023-04-15T08:38:32;24.38;;;1.40;;
1416;SDS011;703;51.162;13.574;2023-04-15T08:40:59;24.88;;;1.55;;
1416;SDS011;703;51.162;13.574;2023-04-15T08:43:31;24.87;;;1.30;;
1416;SDS011;703;51.162;13.574;2023-04-15T08:45:59;24.60;;;1.50;;
1416;SDS011;703;51.162;13.574;2023-04-15T08:48:27;24.50;;;1.30;;
1416;SDS011;703;51.162;13.574;2023-04-15T08:50:53;24.30;;;1.40;;
1416;SDS011;703;51.162;13.574;2023-04-15T08:53:20;24.50;;;1.20;;
1416;SDS011;703;51.162;13.574;2023-04-15T08:55:47;25.30;;;1.40;;
1416;SDS011;703;51.162;13.574;2023-04-15T08:58:14;25.10;;;1.20;;
1416;SDS011;703;51.162;13.574;2023-04-15T09:00:40;24.67;;;1.40;;
1416;SDS011;703;51.162;13.574;2023-04-15T09:03:07;25.00;;;1.30;;
1416;SDS011;703;51.162;13.574;2023-04-15T09:05:37;24.80;;;1.20;;
1416;SDS011;703;51.162;13.574;2023-04-15T09:08:03;25.45;;;1.67;;
1416;SDS011;703;51.162;13.574;2023-04-15T09:10:30;24.65;;;1.20;;
1416;SDS011;703;51.162;13.574;2023-04-15T09:12:56;24.80;;;1.30;;
1416;SDS011;703;51.162;13.574;2023-04-15T09:15:23;24.38;;;1.50;;
1416;SDS011;703;51.162;13.574;2023-04-15T09:17:51;24.30;;;1.40;;
1416;SDS011;703;51.162;13.574;2023-04-15T09:20:17;24.60;;;1.20;;
1416;SDS011;703;51.162;13.574;2023-04-15T09:22:44;24.38;;;1.50;;
1416;SDS011;703;51.162;13.574;2023-04-15T09:27:48;23.88;;;1.20;;
1416;SDS011;703;51.162;13.574;2023-04-15T09:30:14;24.50;;;1.20;;
1416;SDS011;703;51.162;13.574;2023-04-15T09:32:48;25.20;;;1.20;;
1416;SDS011;703;51.162;13.574;2023-04-15T09:35:15;24.30;;;1.55;;
1416;SDS011;703;51.162;13.574;2023-04-15T09:37:41;24.50;;;1.20;;
1416;SDS011;703;51.162;13.574;2023-04-15T09:40:07;24.50;;;1.30;;
1416;SDS011;703;51.162;13.574;2023-04-15T09:42:34;24.13;;;1.40;;
1416;SDS011;703;51.162;13.574;2023-04-15T09:45:18;23.90;;;1.30;;
1416;SDS011;703;51.162;13.574;2023-04-15T09:47:45;24.20;;;1.40;;
1416;SDS011;703;51.162;13.574;2023-04-15T09:50:11;24.55;;;1.75;;
1416;SDS011;703;51.162;13.574;2023-04-15T09:52:40;23.85;;;1.40;;
1416;SDS011;703;51.162;13.574;2023-04-15T09:55:07;24.75;;;1.90;;
1416;SDS011;703;51.162;13.574;2023-04-15T09:57:34;24.35;;;1.48;;
1416;SDS011;703;51.162;13.574;2023-04-15T10:00:01;24.00;;;1.30;;
1416;SDS011;703;51.162;13.574;2023-04-15T10:02:27;23.90;;;1.30;;
1416;SDS011;703;51.162;13.574;2023-04-15T10:04:54;24.70;;;1.70;;
1416;SDS011;703;51.162;13.574;2023-04-15T10:07:21;24.00;;;1.50;;
1416;SDS011;703;51.162;13.574;2023-04-15T10:09:47;24.42;;;1.50;;
1416;SDS011;703;51.162;13.574;2023-04-15T10:12:13;24.58;;;1.15;;
1416;SDS011;703;51.162;13.574;2023-04-15T10:14:40;24.52;;;1.40;;
1416;SDS011;703;51.162;13.574;2023-04-15T10:17:07;24.60;;;1.40;;
1416;SDS011;703;51.162;13.574;2023-04-15T10:19:36;24.10;;;1.40;;
1416;SDS011;703;51.162;13.574;2023-04-15T10:22:02;24.00;;;1.48;;
1416;SDS011;703;51.162;13.574;2023-04-15T10:24:32;23.60;;;1.30;;
1416;SDS011;703;51.162;13.574;2023-04-15T10:26:58;24.83;;;1.45;;
1416;SDS011;703;51.162;13.574;2023-04-15T10:29:25;24.50;;;2.05;;
1416;SDS011;703;51.162;13.574;2023-04-15T10:31:53;25.00;;;2.47;;
1416;SDS011;703;51.162;13.574;2023-04-15T10:34:19;26.50;;;3.20;;
1416;SDS011;703;51.162;13.574;2023-04-15T10:36:46;25.50;;;3.38;;
1416;SDS011;703;51.162;13.574;2023-04-15T10:42:10;26.27;;;3.80;;
1416;SDS011;703;51.162;13.574;2023-04-15T10:44:37;26.43;;;3.93;;
1416;SDS011;703;51.162;13.574;2023-04-15T10:47:13;26.58;;;4.50;;
1416;SDS011;703;51.162;13.574;2023-04-15T10:52:12;26.02;;;4.30;;
1416;SDS011;703;51.162;13.574;2023-04-15T10:54:39;26.05;;;4.22;;
1416;SDS011;703;51.162;13.574;2023-04-15T11:03:33;25.95;;;3.88;;
1416;SDS011;703;51.162;13.574;2023-04-15T11:05:59;25.60;;;3.83;;
1416;SDS011;703;51.162;13.574;2023-04-15T11:08:18;26.20;;;4.00;;
1416;SDS011;703;51.162;13.574;2023-04-15T11:15:37;31.92;;;10.23;;
1416;SDS011;703;51.162;13.574;2023-04-15T11:18:08;25.30;;;3.90;;
1416;SDS011;703;51.162;13.574;2023-04-15T11:20:35;25.23;;;3.83;;
1416;SDS011;703;51.162;13.574;2023-04-15T11:23:01;25.00;;;3.45;;
1416;SDS011;703;51.162;13.574;2023-04-15T11:25:29;25.70;;;3.90;;
1416;SDS011;703;51.162;13.574;2023-04-15T11:27:55;25.50;;;3.60;;
1416;SDS011;703;51.162;13.574;2023-04-15T11:30:23;32.13;;;8.60;;
1416;SDS011;703;51.162;13.574;2023-04-15T11:32:50;29.23;;;5.35;;
1416;SDS011;703;51.162;13.574;2023-04-15T11:35:16;25.10;;;3.50;;
1416;SDS011;703;51.162;13.574;2023-04-15T11:37:43;25.80;;;3.25;;
1416;SDS011;703;51.162;13.574;2023-04-15T11:40:10;25.00;;;3.30;;
1416;SDS011;703;51.162;13.574;2023-04-15T11:42:36;25.23;;;3.72;;
1416;SDS011;703;51.162;13.574;2023-04-15T11:45:14;25.65;;;4.03;;
1416;SDS011;703;51.162;13.574;2023-04-15T11:47:40;25.60;;;3.80;;
1416;SDS011;703;51.162;13.574;2023-04-15T11:50:16;25.50;;;3.50;;
1416;SDS011;703;51.162;13.574;2023-04-15T11:52:55;25.40;;;3.70;;
1416;SDS011;703;51.162;13.574;2023-04-15T11:55:22;25.02;;;3.40;;
1416;SDS011;703;51.162;13.574;2023-04-15T12:00:33;25.50;;;3.28;;
1416;SDS011;703;51.162;13.574;2023-04-15T12:16:28;25.20;;;3.80;;
1416;SDS011;703;51.162;13.574;2023-04-15T12:18:55;24.95;;;3.50;;
1416;SDS011;703;51.162;13.574;2023-04-15T12:21:23;25.70;;;3.97;;
1416;SDS011;703;51.162;13.574;2023-04-15T12:23:51;25.25;;;3.40;;
1416;SDS011;703;51.162;13.574;2023-04-15T12:26:27;25.10;;;3.50;;
1416;SDS011;703;51.162;13.574;2023-04-15T12:31:26;24.67;;;3.40;;
1416;SDS011;703;51.162;13.574;2023-04-15T12:33:56;24.80;;;3.30;;
1416;SDS011;703;51.162;13.574;2023-04-15T12:36:22;24.70;;;2.90;;
1416;SDS011;703;51.162;13.574;2023-04-15T12:38:48;24.20;;;2.90;;
1416;SDS011;703;51.162;13.574;2023-04-15T12:41:14;24.27;;;3.13;;
1416;SDS011;703;51.162;13.574;2023-04-15T12:43:40;24.20;;;3.10;;
1416;SDS011;703;51.162;13.574;2023-04-15T12:46:06;24.30;;;2.90;;
1416;SDS011;703;51.162;13.574;2023-04-15T12:48:32;24.00;;;2.70;;
1416;SDS011;703;51.162;13.574;2023-04-15T12:50:58;24.20;;;3.00;;
1416;SDS011;703;51.162;13.574;2023-04-15T12:53:24;25.40;;;3.15;;
1416;SDS011;703;51.162;13.574;2023-04-15T12:55:51;24.50;;;2.80;;
1416;SDS011;703;51.162;13.574;2023-04-15T12:58:17;24.63;;;2.93;;
1416;SDS011;703;51.162;13.574;2023-04-15T13:00:43;24.07;;;2.50;;
1416;SDS011;703;51.162;13.574;2023-04-15T13:03:09;24.40;;;3.00;;
1416;SDS011;703;51.162;13.574;2023-04-15T13:05:35;24.60;;;2.90;;
1416;SDS011;703;51.162;13.574;2023-04-15T13:08:03;24.60;;;2.80;;
1416;SDS011;703;51.162;13.574;2023-04-15T13:10:29;24.10;;;2.77;;
1416;SDS011;703;51.162;13.574;2023-04-15T13:12:55;23.60;;;2.28;;
1416;SDS011;703;51.162;13.574;2023-04-15T13:15:21;23.67;;;2.40;;
1416;SDS011;703;51.162;13.574;2023-04-15T13:17:48;24.20;;;2.50;;
1416;SDS011;703;51.162;13.574;2023-04-15T13:20:14;24.40;;;2.83;;
1416;SDS011;703;51.162;13.574;2023-04-15T13:22:40;24.15;;;2.90;;
1416;SDS011;703;51.162;13.574;2023-04-15T13:25:06;32.42;;;8.13;;
1416;SDS011;703;51.162;13.574;2023-04-15T13:27:33;24.90;;;3.08;;
1416;SDS011;703;51.162;13.574;2023-04-15T13:29:59;26.10;;;4.47;;
1416;SDS011;703;51.162;13.574;2023-04-15T13:32:25;24.55;;;2.60;;
1416;SDS011;703;51.162;13.574;2023-04-15T13:34:51;24.48;;;2.97;;
1416;SDS011;703;51.162;13.574;2023-04-15T13:37:18;23.50;;;2.35;;
1416;SDS011;703;51.162;13.574;2023-04-15T13:39:44;24.60;;;2.70;;
1416;SDS011;703;51.162;13.574;2023-04-15T13:42:10;23.58;;;2.40;;
1416;SDS011;703;51.162;13.574;2023-04-15T13:44:36;23.30;;;2.42;;
1416;SDS011;703;51.162;13.574;2023-04-15T13:47:02;24.00;;;2.40;;
1416;SDS011;703;51.162;13.574;2023-04-15T13:49:28;25.67;;;4.73;;
1416;SDS011;703;51.162;13.574;2023-04-15T13:51:54;28.08;;;7.93;;
1416;SDS011;703;51.162;13.574;2023-04-15T13:54:19;25.40;;;4.87;;
1416;SDS011;703;51.162;13.574;2023-04-15T13:56:45;24.10;;;3.03;;
1416;SDS011;703;51.162;13.574;2023-04-15T13:59:11;23.70;;;2.80;;
1416;SDS011;703;51.162;13.574;2023-04-15T14:01:37;24.20;;;3.08;;
1416;SDS011;703;51.162;13.574;2023-04-15T14:04:05;23.90;;;2.67;;
1416;SDS011;703;51.162;13.574;2023-04-15T14:06:30;24.02;;;3.05;;
1416;SDS011;703;51.162;13.574;2023-04-15T14:08:56;23.65;;;2.63;;
1416;SDS011;703;51.162;13.574;2023-04-15T14:11:22;24.00;;;2.70;;
1416;SDS011;703;51.162;13.574;2023-04-15T14:13:48;24.00;;;2.95;;
1416;SDS011;703;51.162;13.574;2023-04-15T14:16:14;23.58;;;2.45;;
1416;SDS011;703;51.162;13.574;2023-04-15T14:18:41;23.90;;;2.40;;
1416;SDS011;703;51.162;13.574;2023-04-15T14:21:08;24.10;;;2.70;;
1416;SDS011;703;51.162;13.574;2023-04-15T14:23:33;24.50;;;2.90;;
1416;SDS011;703;51.162;13.574;2023-04-15T14:25:59;24.10;;;2.65;;
1416;SDS011;703;51.162;13.574;2023-04-15T14:28:25;24.70;;;2.70;;
1416;SDS011;703;51.162;13.574;2023-04-15T14:30:51;23.83;;;2.30;;
1416;SDS011;703;51.162;13.574;2023-04-15T14:33:18;23.40;;;2.50;;
1416;SDS011;703;51.162;13.574;2023-04-15T14:35:44;23.60;;;2.50;;
1416;SDS011;703;51.162;13.574;2023-04-15T14:38:10;23.47;;;2.40;;
1416;SDS011;703;51.162;13.574;2023-04-15T14:40:36;23.40;;;2.50;;
1416;SDS011;703;51.162;13.574;2023-04-15T14:43:02;23.50;;;2.50;;
1416;SDS011;703;51.162;13.574;2023-04-15T14:45:29;23.77;;;2.60;;
1416;SDS011;703;51.162;13.574;2023-04-15T14:47:55;23.40;;;2.77;;
1416;SDS011;703;51.162;13.574;2023-04-15T14:50:21;23.70;;;2.90;;
1416;SDS011;703;51.162;13.574;2023-04-15T14:52:47;25.30;;;2.75;;
1416;SDS011;703;51.162;13.574;2023-04-15T14:55:13;24.00;;;2.70;;
1416;SDS011;703;51.162;13.574;2023-04-15T14:57:40;23.55;;;2.55;;
1416;SDS011;703;51.162;13.574;2023-04-15T15:00:06;23.85;;;2.58;;
1416;SDS011;703;51.162;13.574;2023-04-15T15:02:33;24.38;;;3.20;;
1416;SDS011;703;51.162;13.574;2023-04-15T15:05:03;23.80;;;2.70;;
1416;SDS011;703;51.162;13.574;2023-04-15T15:07:29;23.70;;;2.60;;
1416;SDS011;703;51.162;13.574;2023-04-15T15:09:54;24.00;;;2.80;;
1416;SDS011;703;51.162;13.574;2023-04-15T15:12:20;24.17;;;3.00;;
1416;SDS011;703;51.162;13.574;2023-04-15T15:14:47;24.17;;;2.90;;
1416;SDS011;703;51.162;13.574;2023-04-15T15:17:13;25.63;;;3.25;;
1416;SDS011;703;51.162;13.574;2023-04-15T15:19:39;24.10;;;3.30;;
1416;SDS011;703;51.162;13.574;2023-04-15T15:22:05;24.08;;;3.10;;
1416;SDS011;703;51.162;13.574;2023-04-15T15:24:31;23.50;;;2.80;;
1416;SDS011;703;51.162;13.574;2023-04-15T15:26:57;23.55;;;3.05;;
1416;SDS011;703;51.162;13.574;2023-04-15T15:29:23;23.88;;;3.30;;
1416;SDS011;703;51.162;13.574;2023-04-15T15:31:49;23.80;;;3.00;;
1416;SDS011;703;51.162;13.574;2023-04-15T15:34:15;24.50;;;3.50;;
1416;SDS011;703;51.162;13.574;2023-04-15T15:36:41;23.50;;;3.10;;
1416;SDS011;703;51.162;13.574;2023-04-15T15:39:07;23.60;;;3.20;;
1416;SDS011;703;51.162;13.574;2023-04-15T15:41:33;23.67;;;3.30;;
1416;SDS011;703;51.162;13.574;2023-04-15T15:44:00;24.23;;;3.58;;
1416;SDS011;703;51.162;13.574;2023-04-15T15:46:26;23.60;;;3.00;;
1416;SDS011;703;51.162;13.574;2023-04-15T15:48:52;24.10;;;3.40;;
1416;SDS011;703;51.162;13.574;2023-04-15T15:51:21;23.95;;;3.10;;
1416;SDS011;703;51.162;13.574;2023-04-15T15:53:47;23.58;;;3.30;;
1416;SDS011;703;51.162;13.574;2023-04-15T15:56:13;24.60;;;3.75;;
1416;SDS011;703;51.162;13.574;2023-04-15T15:58:40;23.40;;;3.28;;
1416;SDS011;703;51.162;13.574;2023-04-15T16:01:05;23.80;;;3.30;;
1416;SDS011;703;51.162;13.574;2023-04-15T16:03:31;23.70;;;3.43;;
1416;SDS011;703;51.162;13.574;2023-04-15T16:05:57;24.00;;;3.00;;
1416;SDS011;703;51.162;13.574;2023-04-15T16:08:23;24.60;;;3.40;;
1416;SDS011;703;51.162;13.574;2023-04-15T16:10:50;23.45;;;3.00;;
1416;SDS011;703;51.162;13.574;2023-04-15T16:13:16;23.70;;;3.20;;
1416;SDS011;703;51.162;13.574;2023-04-15T16:15:42;23.70;;;3.50;;
1416;SDS011;703;51.162;13.574;2023-04-15T16:18:08;23.90;;;3.40;;
1416;SDS011;703;51.162;13.574;2023-04-15T16:20:34;24.50;;;2.87;;
1416;SDS011;703;51.162;13.574;2023-04-15T16:23:00;23.60;;;3.00;;
1416;SDS011;703;51.162;13.574;2023-04-15T16:25:28;26.40;;;7.15;;
1416;SDS011;703;51.162;13.574;2023-04-15T16:27:54;23.80;;;3.50;;
1416;SDS011;703;51.162;13.574;2023-04-15T16:30:20;23.83;;;4.00;;
1416;SDS011;703;51.162;13.574;2023-04-15T16:32:46;24.33;;;3.60;;
1416;SDS011;703;51.162;13.574;2023-04-15T16:35:11;24.53;;;4.27;;
1416;SDS011;703;51.162;13.574;2023-04-15T16:37:40;24.15;;;4.10;;
1416;SDS011;703;51.162;13.574;2023-04-15T16:40:05;23.10;;;2.60;;
1416;SDS011;703;51.162;13.574;2023-04-15T16:42:32;23.63;;;3.13;;
1416;SDS011;703;51.162;13.574;2023-04-15T16:44:58;23.58;;;3.33;;
1416;SDS011;703;51.162;13.574;2023-04-15T16:47:24;23.50;;;3.25;;
1416;SDS011;703;51.162;13.574;2023-04-15T16:49:50;23.10;;;3.00;;
1416;SDS011;703;51.162;13.574;2023-04-15T16:52:16;23.20;;;2.60;;
1416;SDS011;703;51.162;13.574;2023-04-15T16:54:42;23.52;;;2.88;;
1416;SDS011;703;51.162;13.574;2023-04-15T16:57:08;24.00;;;2.70;;
1416;SDS011;703;51.162;13.574;2023-04-15T16:59:34;23.70;;;2.75;;
1416;SDS011;703;51.162;13.574;2023-04-15T17:01:59;24.70;;;3.85;;
1416;SDS011;703;51.162;13.574;2023-04-15T17:04:26;24.30;;;4.00;;
1416;SDS011;703;51.162;13.574;2023-04-15T17:06:52;25.05;;;4.32;;
1416;SDS011;703;51.162;13.574;2023-04-15T17:09:18;25.00;;;4.67;;
1416;SDS011;703;51.162;13.574;2023-04-15T17:11:43;25.00;;;4.50;;
1416;SDS011;703;51.162;13.574;2023-04-15T17:14:10;25.58;;;4.40;;
1416;SDS011;703;51.162;13.574;2023-04-15T17:16:35;24.88;;;4.47;;
1416;SDS011;703;51.162;13.574;2023-04-15T17:19:02;24.80;;;3.90;;
1416;SDS011;703;51.162;13.574;2023-04-15T17:21:28;26.30;;;4.60;;
1416;SDS011;703;51.162;13.574;2023-04-15T17:23:54;24.90;;;4.20;;